Time;durP1;ratioP1;P1;durP2;ratioP2;P2;SDS_P1;SDS_P2;PMS_P1;PMS_P2;Temp;Humidity;BMP_temperature;BMP_pressure;BME280_temperature;BME280_humidity;BME280_pressure;Samples;Min_cycle;Max_cycle;Signal;HPM_P1;HPM_P2
2021/07/13 00:02:03;;;;;;;6.47;2.28;;;18.90;99.90;;;;;;4996802;28;20069;-85
2021/07/13 00:04:29;;;;;;;5.75;2.28;;;18.80;99.90;;;;;;4996936;28;20096;-85
2021/07/13 00:06:55;;;;;;;9.15;2.53;;;18.90;99.90;;;;;;4997199;28;20478;-85
2021/07/13 00:09:20;;;;;;;5.25;1.88;;;18.90;99.90;;;;;;4979446;28;20057;-84
2021/07/13 00:11:48;;;;;;;30.88;3.58;;;18.90;99.90;;;;;;4997361;28;20023;-85
2021/07/13 00:14:15;;;;;;;10.07;3.47;;;18.80;99.90;;;;;;4998615;28;20089;-87
2021/07/13 00:16:41;;;;;;;9.95;3.13;;;18.60;99.90;;;;;;5007577;28;20054;-87
2021/07/13 00:19:06;;;;;;;9.02;3.25;;;18.50;99.90;;;;;;4980264;28;20027;-88
2021/07/13 00:21:32;;;;;;;12.13;3.22;;;18.30;99.90;;;;;;4979749;28;20033;-87
2021/07/13 00:23:58;;;;;;;10.15;3.60;;;18.20;99.90;;;;;;4996629;28;20060;-87
2021/07/13 00:26:24;;;;;;;14.38;3.40;;;18.10;99.90;;;;;;4979179;28;20065;-86
2021/07/13 00:28:50;;;;;;;8.48;3.13;;;18.20;99.90;;;;;;4977712;28;20030;-86
2021/07/13 00:31:16;;;;;;;13.13;3.33;;;18.20;99.90;;;;;;4979064;28;20470;-86
2021/07/13 00:33:41;;;;;;;7.47;3.35;;;18.10;99.90;;;;;;4978966;28;20133;-86
2021/07/13 00:36:07;;;;;;;7.97;3.05;;;18.10;99.90;;;;;;4978802;28;20027;-85
2021/07/13 00:38:33;;;;;;;10.35;2.90;;;18.00;99.90;;;;;;4996666;28;20030;-85
2021/07/13 00:40:58;;;;;;;9.93;3.03;;;18.00;99.90;;;;;;4978805;28;20101;-86
2021/07/13 00:43:24;;;;;;;3.88;2.05;;;18.00;99.90;;;;;;4978782;28;20409;-86
2021/07/13 00:45:50;;;;;;;4.80;2.17;;;18.00;99.90;;;;;;4978795;28;20022;-85
2021/07/13 00:48:19;;;;;;;5.30;1.88;;;18.00;99.90;;;;;;4978714;28;20030;-85
2021/07/13 00:50:45;;;;;;;9.13;2.22;;;18.00;99.90;;;;;;4978648;28;20089;-85
2021/07/13 00:53:11;;;;;;;5.90;2.30;;;18.10;99.90;;;;;;4978596;28;20026;-85
2021/07/13 00:55:36;;;;;;;6.35;2.47;;;18.10;99.90;;;;;;4995938;28;20026;-84
2021/07/13 00:58:04;;;;;;;4.68;2.40;;;18.20;99.90;;;;;;4996007;28;20030;-85
2021/07/13 01:00:32;;;;;;;3.00;1.90;;;18.30;99.90;;;;;;4978340;28;20486;-84
2021/07/13 01:03:01;;;;;;;6.65;2.17;;;18.30;99.90;;;;;;4995890;28;20042;-84
2021/07/13 01:05:42;;;;;;;6.75;2.40;;;18.30;99.90;;;;;;4995876;28;20026;-84
2021/07/13 01:08:23;;;;;;;7.50;2.00;;;18.50;99.90;;;;;;4978410;28;20026;-84
2021/07/13 01:11:16;;;;;;;6.53;2.20;;;18.60;99.90;;;;;;4978293;28;20026;-84
2021/07/13 01:13:53;;;;;;;4.65;2.22;;;18.50;99.90;;;;;;4995759;28;20446;-84
2021/07/13 01:16:45;;;;;;;7.47;2.22;;;18.50;99.90;;;;;;4978143;28;20030;-84
2021/07/13 01:19:25;;;;;;;8.63;2.25;;;18.60;99.90;;;;;;4978220;28;20031;-84
2021/07/13 01:22:06;;;;;;;4.78;2.08;;;18.70;99.90;;;;;;4978074;28;20022;-83
2021/07/13 01:24:41;;;;;;;5.03;2.28;;;18.70;99.90;;;;;;4978080;28;20024;-84
2021/07/13 01:27:34;;;;;;;5.38;1.95;;;18.70;99.90;;;;;;4978010;28;20498;-84
2021/07/13 01:30:06;;;;;;;7.88;1.88;;;18.80;99.90;;;;;;4977944;28;20022;-85
2021/07/13 01:32:33;;;;;;;8.18;2.17;;;18.80;99.90;;;;;;4995319;28;20074;-85
2021/07/13 01:35:05;;;;;;;5.40;1.83;;;18.80;99.90;;;;;;4977762;28;20030;-85
2021/07/13 01:37:33;;;;;;;2.40;1.48;;;18.70;99.90;;;;;;4977832;28;20049;-85
2021/07/13 01:40:00;;;;;;;4.88;1.83;;;18.70;99.90;;;;;;4977343;28;20185;-85
2021/07/13 01:42:27;;;;;;;8.10;2.10;;;18.60;99.90;;;;;;4977665;28;20026;-85
2021/07/13 01:44:54;;;;;;;3.97;2.15;;;18.60;99.90;;;;;;4977634;28;20023;-85
2021/07/13 01:47:21;;;;;;;4.72;1.85;;;18.60;99.90;;;;;;4977601;28;20121;-85
2021/07/13 01:49:48;;;;;;;3.50;1.90;;;18.70;99.90;;;;;;4977495;28;20045;-85
2021/07/13 01:52:14;;;;;;;3.75;1.70;;;18.60;99.90;;;;;;4977495;28;20517;-85
2021/07/13 01:54:42;;;;;;;4.75;1.70;;;18.70;99.90;;;;;;4994913;28;20394;-85
2021/07/13 01:57:08;;;;;;;5.18;1.85;;;18.70;99.90;;;;;;4994780;28;20513;-85
2021/07/13 01:59:35;;;;;;;4.25;1.95;;;18.70;99.90;;;;;;4977322;28;20479;-86
2021/07/13 02:02:03;;;;;;;4.07;2.00;;;18.70;99.90;;;;;;4977164;28;20161;-85
2021/07/13 02:04:32;;;;;;;3.58;1.80;;;18.60;99.90;;;;;;4977274;28;20033;-86
2021/07/13 02:06:59;;;;;;;3.35;1.70;;;18.40;99.90;;;;;;4977453;28;20100;-86
2021/07/13 02:09:26;;;;;;;4.10;1.85;;;18.30;99.90;;;;;;4994591;28;20032;-86
2021/07/13 02:11:53;;;;;;;9.13;2.15;;;18.10;99.90;;;;;;4977116;28;20058;-86
2021/07/13 02:14:19;;;;;;;5.50;1.95;;;18.10;99.90;;;;;;4977072;28;20027;-86
2021/07/13 02:16:45;;;;;;;6.55;2.00;;;18.00;99.90;;;;;;4976937;28;20111;-87
2021/07/13 02:19:11;;;;;;;6.75;1.83;;;18.00;99.90;;;;;;4994467;28;20019;-87
2021/07/13 02:21:37;;;;;;;4.43;1.90;;;18.00;99.90;;;;;;4976936;28;20031;-86
2021/07/13 02:24:03;;;;;;;5.20;1.80;;;18.00;99.90;;;;;;4977483;28;20026;-86
2021/07/13 02:26:34;;;;;;;4.47;1.92;;;18.00;99.90;;;;;;4994364;28;20037;-86
2021/07/13 02:29:09;;;;;;;3.72;1.98;;;18.00;99.90;;;;;;4977094;28;20034;-85
2021/07/13 02:31:41;;;;;;;3.00;1.75;;;18.00;99.90;;;;;;4977045;28;20034;-86
2021/07/13 02:34:15;;;;;;;3.88;1.77;;;18.00;99.90;;;;;;4994330;28;20057;-86
2021/07/13 02:36:47;;;;;;;6.97;2.00;;;18.10;99.90;;;;;;4994456;28;20076;-87
2021/07/13 02:39:15;;;;;;;4.68;2.30;;;18.10;99.90;;;;;;4976760;28;20482;-86
2021/07/13 02:41:42;;;;;;;6.80;2.10;;;18.00;99.90;;;;;;4994155;28;20026;-86
2021/07/13 02:44:10;;;;;;;4.70;1.75;;;18.00;99.90;;;;;;4994088;28;20046;-86
2021/07/13 02:46:41;;;;;;;4.63;2.03;;;18.00;99.90;;;;;;4994061;28;20536;-86
2021/07/13 02:49:09;;;;;;;4.47;1.55;;;18.00;99.90;;;;;;4994103;28;20053;-86
2021/07/13 02:51:36;;;;;;;5.72;2.00;;;18.00;99.90;;;;;;4976355;28;20377;-86
2021/07/13 02:54:05;;;;;;;2.58;1.67;;;18.00;99.90;;;;;;4976512;28;20022;-87
2021/07/13 02:56:33;;;;;;;3.55;1.80;;;18.10;99.90;;;;;;4976479;28;20096;-87
2021/07/13 02:59:01;;;;;;;4.70;1.55;;;18.10;99.90;;;;;;4976460;28;20526;-86
2021/07/13 03:01:28;;;;;;;2.92;1.95;;;18.10;99.90;;;;;;4976159;28;20387;-86
2021/07/13 03:03:54;;;;;;;2.65;1.60;;;18.20;99.90;;;;;;4976421;28;20125;-86
2021/07/13 03:06:21;;;;;;;4.15;1.73;;;18.10;99.90;;;;;;4976390;28;20031;-86
2021/07/13 03:08:47;;;;;;;9.20;2.13;;;18.10;99.90;;;;;;4976328;28;20030;-86
2021/07/13 03:11:14;;;;;;;3.75;1.73;;;18.10;99.90;;;;;;4976418;28;20054;-86
2021/07/13 03:13:41;;;;;;;4.47;1.88;;;18.10;99.90;;;;;;4993780;28;20058;-86
2021/07/13 03:16:10;;;;;;;4.13;1.80;;;18.10;99.90;;;;;;4993947;28;20049;-85
2021/07/13 03:18:35;;;;;;;4.00;1.50;;;18.30;99.90;;;;;;4976348;28;20533;-86
2021/07/13 03:21:03;;;;;;;4.25;2.05;;;18.40;99.90;;;;;;4976237;28;20023;-86
2021/07/13 03:23:30;;;;;;;4.53;1.70;;;18.40;99.90;;;;;;4976306;28;20479;-85
2021/07/13 03:25:57;;;;;;;5.43;1.60;;;18.40;99.90;;;;;;4976153;28;20034;-85
2021/07/13 03:28:26;;;;;;;3.47;1.67;;;18.30;99.90;;;;;;4976209;28;20037;-85
2021/07/13 03:30:53;;;;;;;3.40;1.70;;;18.20;99.90;;;;;;4976097;28;20033;-85
2021/07/13 03:33:20;;;;;;;4.60;1.80;;;18.10;99.90;;;;;;4994825;28;20027;-85
2021/07/13 03:35:47;;;;;;;4.97;2.00;;;18.20;99.90;;;;;;4977785;28;20101;-85
2021/07/13 03:38:14;;;;;;;3.10;1.63;;;18.20;99.90;;;;;;4995549;28;20145;-85
2021/07/13 03:40:41;;;;;;;7.05;1.52;;;18.10;99.90;;;;;;4977748;28;20542;-85
2021/07/13 03:43:07;;;;;;;4.50;1.75;;;18.10;99.90;;;;;;4977730;28;20109;-85
2021/07/13 03:45:33;;;;;;;3.92;1.70;;;18.20;99.90;;;;;;4977692;28;20116;-85
2021/07/13 03:48:00;;;;;;;4.82;1.75;;;18.30;99.90;;;;;;4977775;28;20430;-85
2021/07/13 03:50:29;;;;;;;1.80;1.33;;;18.20;99.90;;;;;;4977129;28;20422;-85
2021/07/13 03:52:54;;;;;;;5.20;1.60;;;18.10;99.90;;;;;;4978153;28;20081;-85
2021/07/13 03:55:20;;;;;;;2.88;1.30;;;18.00;99.90;;;;;;4977648;28;20026;-85
2021/07/13 03:57:46;;;;;;;4.30;1.80;;;18.00;99.90;;;;;;4995315;28;20023;-85
2021/07/13 04:00:17;;;;;;;6.10;1.60;;;18.00;99.90;;;;;;4977386;28;20537;-85
2021/07/13 04:02:44;;;;;;;2.53;1.20;;;18.10;99.90;;;;;;4979150;28;20054;-85
2021/07/13 04:05:11;;;;;;;2.95;1.52;;;18.10;99.90;;;;;;4981081;28;20041;-84
2021/07/13 04:07:37;;;;;;;4.07;1.40;;;18.00;99.90;;;;;;4998662;28;20467;-84
2021/07/13 04:10:05;;;;;;;5.57;1.70;;;18.00;99.90;;;;;;4980180;28;20070;-85
2021/07/13 04:12:30;;;;;;;3.70;1.42;;;18.00;99.90;;;;;;4981077;28;20030;-85
2021/07/13 04:14:56;;;;;;;5.40;1.35;;;18.00;99.90;;;;;;4981012;28;20402;-84
2021/07/13 04:17:22;;;;;;;2.70;1.40;;;18.00;99.90;;;;;;4998621;28;20019;-85
2021/07/13 04:19:47;;;;;;;4.57;1.55;;;18.00;99.90;;;;;;4981141;28;20026;-85
2021/07/13 04:22:13;;;;;;;6.15;1.35;;;18.00;99.90;;;;;;4980988;28;20117;-85
2021/07/13 04:24:39;;;;;;;4.63;1.50;;;18.10;99.90;;;;;;4997916;28;20023;-85
2021/07/13 04:27:05;;;;;;;3.30;1.40;;;18.20;99.90;;;;;;4998057;28;20030;-85
2021/07/13 04:29:30;;;;;;;2.05;1.13;;;18.20;99.90;;;;;;4980798;28;20487;-85
2021/07/13 04:31:56;;;;;;;4.90;1.65;;;18.20;99.90;;;;;;4980712;28;20026;-85
2021/07/13 04:34:22;;;;;;;4.75;1.85;;;18.20;99.90;;;;;;4980630;28;20026;-85
2021/07/13 04:36:48;;;;;;;3.83;1.70;;;18.30;99.90;;;;;;4997604;28;20077;-84
2021/07/13 04:39:13;;;;;;;3.88;1.40;;;18.30;99.90;;;;;;4998112;28;20089;-84
2021/07/13 04:41:39;;;;;;;4.03;1.33;;;18.20;99.90;;;;;;4980108;28;20109;-85
2021/07/13 04:44:05;;;;;;;3.90;1.30;;;18.20;99.90;;;;;;4998114;28;20022;-85
2021/07/13 04:46:31;;;;;;;4.15;1.42;;;18.20;99.90;;;;;;4981298;28;20030;-85
2021/07/13 04:48:57;;;;;;;5.75;1.35;;;18.20;99.90;;;;;;4980541;28;20097;-85
2021/07/13 04:51:24;;;;;;;2.95;1.63;;;18.30;99.90;;;;;;4997851;28;20027;-85
2021/07/13 04:53:50;;;;;;;3.05;1.20;;;18.40;99.90;;;;;;4980318;28;20022;-84
2021/07/13 04:56:16;;;;;;;4.40;1.60;;;18.40;99.90;;;;;;4964095;28;20031;-84
2021/07/13 04:58:42;;;;;;;2.45;1.33;;;18.30;99.90;;;;;;4979665;28;20053;-83
2021/07/13 05:01:07;;;;;;;3.67;1.73;;;18.30;99.90;;;;;;4979152;28;20030;-83
2021/07/13 05:03:33;;;;;;;3.85;1.45;;;18.40;99.90;;;;;;4996667;28;20042;-83
2021/07/13 05:05:59;;;;;;;4.00;1.63;;;18.50;99.90;;;;;;4979282;28;20052;-83
2021/07/13 05:08:25;;;;;;;6.47;1.40;;;18.40;99.90;;;;;;4996691;28;20066;-83
2021/07/13 05:10:51;;;;;;;2.90;1.30;;;18.50;99.90;;;;;;4996346;28;20026;-83
2021/07/13 05:13:18;;;;;;;4.28;1.52;;;18.50;99.90;;;;;;4996149;28;20034;-83
2021/07/13 05:15:43;;;;;;;3.05;1.48;;;18.40;99.90;;;;;;4978239;28;20548;-83
2021/07/13 05:18:11;;;;;;;3.47;1.70;;;18.40;99.90;;;;;;4978993;28;20030;-83
2021/07/13 05:20:40;;;;;;;5.40;1.63;;;18.40;99.90;;;;;;4978918;28;20037;-83
2021/07/13 05:23:09;;;;;;;4.78;1.40;;;18.40;99.90;;;;;;4978883;28;20494;-83
2021/07/13 05:25:36;;;;;;;3.85;1.65;;;18.40;99.90;;;;;;4996646;28;20470;-83
2021/07/13 05:28:03;;;;;;;6.28;1.90;;;18.50;99.90;;;;;;4978741;28;20117;-83
2021/07/13 05:30:29;;;;;;;3.03;1.80;;;18.60;99.90;;;;;;4978682;28;20022;-83
2021/07/13 05:32:55;;;;;;;3.45;1.75;;;18.80;99.90;;;;;;4978498;28;20037;-82
2021/07/13 05:35:22;;;;;;;6.00;1.75;;;18.70;99.90;;;;;;4978328;28;20033;-83
2021/07/13 05:37:48;;;;;;;4.50;2.28;;;18.80;99.90;;;;;;4978557;28;20033;-83
2021/07/13 05:40:14;;;;;;;5.22;1.77;;;18.90;99.90;;;;;;4978424;28;20034;-83
2021/07/13 05:42:41;;;;;;;2.83;1.65;;;18.80;99.90;;;;;;4978536;28;20034;-83
2021/07/13 05:45:08;;;;;;;6.05;1.85;;;18.80;99.90;;;;;;4978341;28;20046;-83
2021/07/13 05:47:34;;;;;;;7.22;2.30;;;18.70;99.90;;;;;;4995806;28;20061;-83
2021/07/13 05:50:00;;;;;;;4.28;1.90;;;18.60;99.90;;;;;;4978141;28;20023;-82
2021/07/13 05:52:26;;;;;;;6.25;1.67;;;18.50;99.90;;;;;;4995641;28;20395;-82
2021/07/13 05:54:52;;;;;;;8.88;1.70;;;18.50;99.90;;;;;;4978423;28;20023;-83
2021/07/13 05:57:18;;;;;;;2.85;1.80;;;18.40;99.90;;;;;;4978541;28;20034;-83
2021/07/13 05:59:44;;;;;;;4.72;1.63;;;18.40;99.90;;;;;;4979028;28;20114;-84
2021/07/13 06:02:11;;;;;;;6.68;1.52;;;18.50;99.90;;;;;;4978963;28;20064;-84
2021/07/13 06:04:36;;;;;;;7.68;1.45;;;18.60;99.90;;;;;;4979081;28;20046;-84
2021/07/13 06:07:03;;;;;;;7.07;2.67;;;18.60;99.90;;;;;;4978453;28;20478;-84
2021/07/13 06:09:29;;;;;;;5.13;1.80;;;18.60;99.90;;;;;;4978636;28;20030;-84
2021/07/13 06:11:56;;;;;;;3.28;1.48;;;18.60;99.90;;;;;;4979149;28;20085;-85
2021/07/13 06:14:22;;;;;;;3.40;1.60;;;18.60;99.90;;;;;;4978987;28;20436;-85
2021/07/13 06:16:48;;;;;;;3.58;1.40;;;18.60;99.90;;;;;;4978869;28;20113;-85
2021/07/13 06:19:14;;;;;;;2.88;1.50;;;18.60;99.90;;;;;;4978834;28;20014;-85
2021/07/13 06:21:40;;;;;;;3.85;1.52;;;18.60;99.90;;;;;;4996753;28;20081;-85
2021/07/13 06:24:06;;;;;;;2.67;1.70;;;18.70;99.90;;;;;;4978024;28;20083;-86
2021/07/13 06:26:31;;;;;;;3.13;1.30;;;18.80;99.90;;;;;;4996559;28;20034;-84
2021/07/13 06:28:57;;;;;;;4.45;1.48;;;18.70;99.90;;;;;;4978831;28;20537;-85
2021/07/13 06:31:23;;;;;;;5.13;1.50;;;18.60;99.90;;;;;;4978785;28;20022;-84
2021/07/13 06:33:49;;;;;;;3.92;1.30;;;18.60;99.90;;;;;;4978431;28;20042;-84
2021/07/13 06:36:15;;;;;;;3.70;1.48;;;18.60;99.90;;;;;;4996212;28;20076;-84
2021/07/13 06:38:40;;;;;;;8.90;1.77;;;18.60;99.90;;;;;;4978553;28;20026;-83
2021/07/13 06:41:07;;;;;;;5.07;1.35;;;18.60;99.90;;;;;;4995191;28;20023;-83
2021/07/13 06:43:33;;;;;;;4.65;1.40;;;18.70;99.90;;;;;;4978640;28;20026;-83
2021/07/13 06:45:58;;;;;;;3.95;1.60;;;18.80;99.90;;;;;;4978447;28;20034;-84
2021/07/13 06:48:24;;;;;;;3.47;1.42;;;18.70;99.90;;;;;;4978240;28;20033;-83
2021/07/13 06:50:53;;;;;;;3.90;1.55;;;18.60;99.90;;;;;;4995670;28;20116;-84
2021/07/13 06:53:20;;;;;;;2.85;1.70;;;18.60;99.90;;;;;;4978465;28;20490;-84
2021/07/13 06:55:46;;;;;;;2.70;1.23;;;18.50;99.90;;;;;;4996016;28;20030;-84
2021/07/13 06:58:11;;;;;;;8.68;1.58;;;18.40;99.90;;;;;;4977851;28;20110;-85
2021/07/13 07:00:37;;;;;;;4.28;1.50;;;18.40;99.90;;;;;;4978247;28;20029;-85
2021/07/13 07:03:03;;;;;;;5.78;2.03;;;18.40;99.90;;;;;;4978192;28;20045;-85
2021/07/13 07:05:29;;;;;;;5.60;1.60;;;18.50;99.90;;;;;;4978298;28;20033;-84
2021/07/13 07:07:55;;;;;;;5.13;1.63;;;18.50;99.90;;;;;;4978313;28;20057;-85
2021/07/13 07:10:21;;;;;;;5.65;1.45;;;18.50;99.90;;;;;;4979290;28;20502;-84
2021/07/13 07:12:48;;;;;;;6.53;1.85;;;18.50;99.90;;;;;;4978046;28;20019;-85
2021/07/13 07:15:14;;;;;;;3.92;1.25;;;18.60;99.90;;;;;;4977526;28;20026;-85
2021/07/13 07:17:50;;;;;;;5.45;1.52;;;18.60;99.90;;;;;;4978305;28;20027;-85
2021/07/13 07:20:18;;;;;;;4.97;1.63;;;18.60;99.90;;;;;;4978217;28;20034;-85
2021/07/13 07:22:44;;;;;;;2.53;1.45;;;18.60;99.90;;;;;;4978047;28;20540;-85
2021/07/13 07:25:10;;;;;;;4.07;1.60;;;18.60;99.90;;;;;;4978141;28;20105;-85
2021/07/13 07:27:37;;;;;;;2.47;1.42;;;18.60;99.90;;;;;;4995730;28;20030;-85
2021/07/13 07:30:06;;;;;;;3.72;2.38;;;18.50;99.90;;;;;;4978096;28;20034;-86
2021/07/13 07:32:36;;;;;;;3.05;1.70;;;18.50;99.90;;;;;;4978692;28;20498;-87
2021/07/13 07:35:03;;;;;;;5.60;1.70;;;18.50;99.90;;;;;;4978096;28;20036;-87
2021/07/13 07:37:29;;;;;;;2.85;1.20;;;18.50;99.90;;;;;;4979669;28;20098;-87
2021/07/13 07:39:54;;;;;;;4.03;1.65;;;18.50;99.90;;;;;;4982126;28;20034;-87
2021/07/13 07:42:20;;;;;;;4.53;1.77;;;18.40;99.90;;;;;;4982226;28;20050;-88
2021/07/13 07:44:46;;;;;;;2.85;1.73;;;18.40;99.90;;;;;;4982269;28;20026;-88
2021/07/13 07:47:12;;;;;;;4.22;1.40;;;18.30;99.90;;;;;;4999418;28;20014;-85
2021/07/13 07:49:37;;;;;;;3.67;1.48;;;18.40;99.90;;;;;;4999527;28;20430;-88
2021/07/13 07:52:03;;;;;;;2.00;1.38;;;18.40;99.90;;;;;;4998579;28;20453;-88
2021/07/13 07:54:30;;;;;;;1.90;1.30;;;18.40;99.90;;;;;;4981773;28;20022;-89
2021/07/13 07:56:55;;;;;;;4.95;1.23;;;18.40;99.90;;;;;;4999429;28;20027;-88
2021/07/13 07:59:21;;;;;;;4.97;1.60;;;18.40;99.90;;;;;;4982197;28;20037;-88
2021/07/13 08:01:48;;;;;;;4.20;1.50;;;18.30;99.90;;;;;;4981833;28;20128;-88
2021/07/13 08:04:13;;;;;;;5.53;1.48;;;18.30;99.90;;;;;;4999313;28;20383;-87
2021/07/13 08:06:39;;;;;;;3.00;1.50;;;18.30;99.90;;;;;;4981978;28;20034;-87
2021/07/13 08:09:07;;;;;;;20.67;9.52;;;18.30;99.90;;;;;;4980904;28;20129;-88
2021/07/13 08:11:34;;;;;;;4.38;1.60;;;18.40;99.90;;;;;;4998996;28;20029;-88
2021/07/13 08:14:00;;;;;;;3.20;1.30;;;18.40;99.90;;;;;;4999375;28;20101;-90
2021/07/13 08:16:27;;;;;;;2.90;1.42;;;18.50;99.90;;;;;;4982180;28;20038;-89
2021/07/13 08:18:53;;;;;;;1.73;1.23;;;18.40;99.90;;;;;;4982914;28;20060;-89
2021/07/13 08:21:20;;;;;;;3.08;1.13;;;18.40;99.90;;;;;;4981807;28;20022;-89
2021/07/13 08:23:46;;;;;;;12.90;1.50;;;18.60;99.90;;;;;;4981298;28;20019;-87
2021/07/13 08:26:13;;;;;;;3.67;0.80;;;18.60;99.90;;;;;;4980710;28;20026;-87
2021/07/13 08:28:39;;;;;;;0.98;0.60;;;18.70;99.90;;;;;;4981872;28;20030;-87
2021/07/13 08:31:04;;;;;;;2.05;1.30;;;18.60;99.90;;;;;;4981493;28;20034;-88
2021/07/13 08:33:30;;;;;;;2.25;0.82;;;18.60;99.90;;;;;;4981080;28;20430;-87
2021/07/13 08:35:56;;;;;;;1.85;0.88;;;18.50;99.90;;;;;;4998736;28;20082;-86
2021/07/13 08:38:21;;;;;;;4.20;0.82;;;18.50;99.90;;;;;;4981000;28;20026;-85
2021/07/13 08:40:47;;;;;;;4.22;0.90;;;18.50;99.90;;;;;;4980984;28;20034;-86
2021/07/13 08:43:14;;;;;;;5.88;0.60;;;18.50;99.90;;;;;;4997640;28;20029;-85
2021/07/13 08:45:40;;;;;;;1.23;0.30;;;18.60;99.90;;;;;;4998090;28;20482;-85
2021/07/13 08:48:06;;;;;;;2.90;0.57;;;18.50;99.90;;;;;;4997890;28;20117;-86
2021/07/13 08:50:32;;;;;;;2.22;0.63;;;18.50;99.90;;;;;;4980276;28;20041;-85
2021/07/13 08:52:58;;;;;;;1.13;0.50;;;18.40;99.90;;;;;;4997764;28;20386;-86
2021/07/13 08:55:24;;;;;;;0.52;0.30;;;18.40;99.90;;;;;;4981341;28;20023;-86
2021/07/13 08:57:50;;;;;;;0.75;0.32;;;18.30;99.90;;;;;;4980971;28;20022;-87
2021/07/13 09:00:19;;;;;;;1.08;0.50;;;18.30;99.90;;;;;;4980902;28;20033;-88
2021/07/13 09:03:07;;;;;;;1.60;0.38;;;18.40;99.90;;;;;;4980933;28;20141;-89
2021/07/13 09:05:48;;;;;;;3.60;1.45;;;18.40;99.90;;;;;;4980322;28;20057;-90
2021/07/13 09:08:21;;;;;;;0.77;0.32;;;18.40;99.90;;;;;;4980060;28;20019;-88
2021/07/13 09:11:06;;;;;;;1.80;0.52;;;18.30;99.90;;;;;;4998058;28;20053;-88
2021/07/13 09:13:35;;;;;;;1.15;0.73;;;18.10;99.90;;;;;;4980137;28;20080;-87
2021/07/13 09:16:04;;;;;;;0.98;0.40;;;18.10;99.90;;;;;;4979754;28;20030;-87
2021/07/13 09:18:41;;;;;;;1.05;0.25;;;18.00;99.90;;;;;;4998105;28;20466;-89
2021/07/13 09:21:22;;;;;;;1.02;0.30;;;17.90;99.90;;;;;;4980547;28;20497;-88
2021/07/13 09:24:00;;;;;;;3.47;0.30;;;17.80;99.90;;;;;;4980464;28;20433;-87
2021/07/13 09:26:37;;;;;;;0.95;0.30;;;17.80;99.90;;;;;;4997703;28;20023;-87
2021/07/13 09:29:03;;;;;;;2.25;0.35;;;17.70;99.90;;;;;;4997867;28;20026;-86
2021/07/13 09:31:29;;;;;;;0.85;0.32;;;17.60;99.90;;;;;;4980527;28;20513;-86
2021/07/13 09:33:54;;;;;;;0.40;0.20;;;17.30;99.90;;;;;;4978170;28;20026;-87
2021/07/13 09:36:20;;;;;;;0.35;0.20;;;17.10;99.90;;;;;;4995760;28;20076;-87
2021/07/13 09:38:46;;;;;;;1.33;0.30;;;17.10;99.90;;;;;;4995817;28;20022;-88
2021/07/13 09:41:20;;;;;;;0.93;0.30;;;17.10;99.90;;;;;;4978028;28;20022;-87
2021/07/13 09:43:59;;;;;;;0.88;0.40;;;17.20;99.90;;;;;;4995562;28;20026;-88
2021/07/13 09:46:35;;;;;;;1.95;0.30;;;17.30;99.90;;;;;;4977903;28;20035;-88
2021/07/13 09:49:11;;;;;;;1.02;0.25;;;17.10;99.90;;;;;;4978567;28;20046;-88
2021/07/13 09:51:42;;;;;;;3.50;0.50;;;16.80;99.90;;;;;;4978035;28;20056;-88
2021/07/13 09:54:28;;;;;;;0.68;0.30;;;16.70;99.90;;;;;;4978095;28;20019;-88
2021/07/13 09:56:54;;;;;;;1.02;0.20;;;16.50;99.90;;;;;;4977814;28;20101;-88
2021/07/13 09:59:20;;;;;;;3.17;0.40;;;16.60;99.90;;;;;;4977566;28;20022;-88
2021/07/13 10:01:47;;;;;;;1.00;0.35;;;16.60;99.90;;;;;;4977206;28;20078;-87
2021/07/13 10:04:13;;;;;;;0.80;0.30;;;16.60;99.90;;;;;;4977599;28;20489;-87
2021/07/13 10:06:40;;;;;;;0.25;0.25;;;16.70;99.90;;;;;;4994809;28;20057;-87
2021/07/13 10:09:11;;;;;;;0.47;0.30;;;16.80;99.90;;;;;;4977897;28;20122;-86
2021/07/13 10:11:39;;;;;;;1.50;0.38;;;16.90;99.90;;;;;;4977693;28;20129;-87
2021/07/13 10:14:07;;;;;;;1.65;0.38;;;17.00;99.90;;;;;;4977744;28;20033;-87
2021/07/13 10:16:33;;;;;;;0.52;0.20;;;17.10;99.90;;;;;;4977278;28;20041;-86
2021/07/13 10:19:00;;;;;;;2.22;0.28;;;17.10;99.90;;;;;;4977482;28;20490;-87
2021/07/13 10:21:26;;;;;;;1.88;0.10;;;17.10;99.90;;;;;;4977545;28;20022;-88
2021/07/13 10:23:53;;;;;;;1.55;0.38;;;17.30;99.90;;;;;;4977607;28;20394;-88
2021/07/13 10:26:48;;;;;;;1.75;0.40;;;17.30;99.90;;;;;;4977130;28;20022;-88
2021/07/13 10:29:32;;;;;;;0.50;0.20;;;17.40;99.90;;;;;;4977396;28;20018;-90
2021/07/13 10:32:22;;;;;;;0.38;0.20;;;17.20;99.90;;;;;;4994843;28;20500;-89
2021/07/13 10:34:55;;;;;;;0.50;0.10;;;16.80;99.90;;;;;;4963926;28;20066;-89
2021/07/13 10:37:30;;;;;;;0.10;0.08;;;16.70;99.90;;;;;;4994619;28;20486;-89
2021/07/13 10:40:24;;;;;;;0.20;0.10;;;16.70;99.90;;;;;;4977383;28;20023;-90
2021/07/13 10:43:15;;;;;;;1.27;0.20;;;16.80;99.90;;;;;;4969861;28;20030;-88
2021/07/13 10:45:42;;;;;;;1.15;0.20;;;17.00;99.90;;;;;;4966899;28;20030;-88
2021/07/13 10:48:21;;;;;;;1.58;0.28;;;17.10;99.90;;;;;;4976881;28;20026;-88
2021/07/13 10:50:51;;;;;;;0.35;0.28;;;17.30;99.90;;;;;;4976794;28;20030;-89
2021/07/13 10:53:31;;;;;;;0.20;0.10;;;17.30;99.90;;;;;;4976882;28;20062;-88
2021/07/13 10:55:58;;;;;;;4.47;0.38;;;17.20;99.90;;;;;;4976689;28;20379;-88
2021/07/13 10:58:28;;;;;;;1.17;0.30;;;17.30;99.90;;;;;;4994717;28;20414;-86
2021/07/13 11:00:56;;;;;;;0.13;0.10;;;17.50;99.90;;;;;;4995012;28;20050;-86
2021/07/13 11:03:30;;;;;;;0.55;0.10;;;17.30;99.90;;;;;;4976414;28;20042;-79
2021/07/13 11:06:00;;;;;;;0.10;0.10;;;17.30;99.90;;;;;;4993941;28;20034;-79
2021/07/13 11:08:41;;;;;;;1.23;0.15;;;17.20;99.90;;;;;;4976445;28;20035;-78
2021/07/13 11:11:16;;;;;;;2.08;0.20;;;17.20;99.90;;;;;;4976269;28;20026;-78
2021/07/13 11:13:51;;;;;;;0.75;0.20;;;17.20;99.90;;;;;;4993477;28;20048;-78
2021/07/13 11:16:26;;;;;;;1.23;0.30;;;17.30;99.90;;;;;;4976346;28;20409;-78
2021/07/13 11:18:52;;;;;;;1.30;0.17;;;17.20;99.90;;;;;;4976421;28;20026;-78
2021/07/13 11:21:24;;;;;;;0.45;0.20;;;17.30;99.90;;;;;;4976213;28;20113;-78
2021/07/13 11:23:54;;;;;;;0.88;0.30;;;17.50;99.90;;;;;;4976548;28;20046;-76
2021/07/13 11:26:22;;;;;;;6.93;0.20;;;17.40;99.90;;;;;;4976214;28;20118;-77
2021/07/13 11:28:53;;;;;;;2.92;0.30;;;17.40;99.90;;;;;;4976252;28;20054;-76
2021/07/13 11:31:32;;;;;;;0.90;0.32;;;17.50;99.90;;;;;;4976258;28;20045;-79
2021/07/13 11:34:13;;;;;;;1.55;0.30;;;17.40;99.90;;;;;;4976140;28;20038;-78
2021/07/13 11:36:40;;;;;;;2.85;0.30;;;17.40;99.90;;;;;;4976087;28;20038;-77
2021/07/13 11:39:26;;;;;;;0.45;0.20;;;17.40;99.90;;;;;;4993567;28;20022;-79
2021/07/13 11:41:58;;;;;;;1.40;0.20;;;17.40;99.90;;;;;;4976120;28;20057;-78
2021/07/13 11:44:24;;;;;;;0.40;0.20;;;17.30;99.90;;;;;;4993551;28;20019;-77
2021/07/13 11:46:51;;;;;;;0.40;0.30;;;17.40;99.90;;;;;;4976028;28;20482;-78
2021/07/13 11:49:27;;;;;;;0.40;0.20;;;17.30;99.90;;;;;;4976045;28;20033;-76
2021/07/13 11:51:56;;;;;;;1.23;0.30;;;17.30;99.90;;;;;;4993541;28;20026;-80
2021/07/13 11:54:42;;;;;;;1.27;0.25;;;17.30;99.90;;;;;;4976124;28;20485;-79
2021/07/13 11:57:10;;;;;;;0.30;0.20;;;17.40;99.90;;;;;;4993420;28;20421;-79
2021/07/13 11:59:38;;;;;;;0.50;0.30;;;17.30;99.90;;;;;;4975970;28;20034;-79
2021/07/13 12:02:06;;;;;;;0.47;0.25;;;17.40;99.90;;;;;;4975770;28;20051;-80
2021/07/13 12:04:37;;;;;;;1.65;0.30;;;17.60;99.90;;;;;;4975944;28;20029;-79
2021/07/13 12:07:03;;;;;;;1.65;0.20;;;18.00;99.90;;;;;;4976036;28;20027;-79
2021/07/13 12:09:31;;;;;;;3.05;0.28;;;18.20;99.90;;;;;;4993308;28;20038;-78
2021/07/13 12:12:08;;;;;;;0.55;0.35;;;18.10;99.90;;;;;;4975878;28;20042;-78
2021/07/13 12:14:35;;;;;;;0.57;0.28;;;18.20;99.90;;;;;;4975814;28;20375;-78
2021/07/13 12:17:01;;;;;;;1.25;0.20;;;18.30;99.90;;;;;;4993185;28;20065;-79
2021/07/13 12:19:29;;;;;;;0.43;0.20;;;18.20;99.90;;;;;;4977172;28;20022;-80
2021/07/13 12:22:10;;;;;;;2.15;0.40;;;18.30;99.90;;;;;;4975719;28;20502;-81
2021/07/13 12:24:44;;;;;;;0.43;0.30;;;18.20;99.90;;;;;;4978585;28;20026;-83
2021/07/13 12:27:12;;;;;;;1.02;0.38;;;18.10;99.90;;;;;;4979214;28;20030;-87
2021/07/13 12:29:38;;;;;;;0.47;0.20;;;17.90;99.90;;;;;;4979178;28;20061;-81
2021/07/13 12:32:07;;;;;;;3.58;0.50;;;18.00;99.90;;;;;;4979090;28;20026;-80
2021/07/13 12:34:41;;;;;;;2.67;0.32;;;18.20;99.90;;;;;;4996489;28;20022;-79
2021/07/13 12:37:22;;;;;;;2.20;0.40;;;18.30;99.90;;;;;;4978982;28;20553;-80
2021/07/13 12:39:49;;;;;;;0.50;0.40;;;18.40;99.90;;;;;;4979134;28;20062;-80
2021/07/13 12:42:25;;;;;;;0.25;0.22;;;18.20;99.90;;;;;;4978906;28;20022;-82
2021/07/13 12:44:52;;;;;;;1.00;0.40;;;18.10;99.90;;;;;;4996338;28;20026;-79
2021/07/13 12:47:27;;;;;;;0.55;0.40;;;17.90;99.90;;;;;;4978763;28;20036;-79
2021/07/13 12:50:09;;;;;;;0.55;0.47;;;17.90;99.90;;;;;;4978874;28;20029;-78
2021/07/13 12:52:59;;;;;;;1.15;0.40;;;17.60;99.90;;;;;;5002438;28;20084;-94
2021/07/13 12:55:31;;;;;;;1.33;0.40;;;17.60;99.90;;;;;;4983821;28;20033;-93